Kettering, Ohio
Current Conditions -  °F | °C
As of 7:53 PM on Tuesday 27 Jan 2015 (Local Time) from KMGY Reporting Station
Clear Clear  
Wind Chill: -12°   Ceiling: Unl
Heat Index: -8°   Visibility: 10mi
Dew Point: -12°   Wind: 6mph
Humidity: 74%   Direction: 350°N
Pressure: 30.2"   Gusts: NA
Location:  39.7°N, 84.16°W
Report Text: KMGY 280053Z AUTO 35005KT 10SM CLR M08/M12 A3020 RMK AO2 SLP242 T10781117
Loading
Personal Weather Stations






























Interactive Weather Map New forecast layout! Learn more

10-Day Weather Forecast

Advertisements
Track Severe Weather on mobile